Time;durP1;ratioP1;P1;durP2;ratioP2;P2;SDS_P1;SDS_P2;PMS_P1;PMS_P2;Temp;Humidity;BMP_temperature;BMP_pressure;BME280_temperature;BME280_humidity;BME280_pressure;Samples;Min_cycle;Max_cycle;Signal;HPM_P1;HPM_P2
2023/04/07 00:00:57;;;;;;;55.53;29.70;;;;;;;;;;4867668;29;20033;-77
2023/04/07 00:03:23;;;;;;;29.70;21.77;;;;;;;;;;4867988;29;20036;-77
2023/04/07 00:05:48;;;;;;;27.83;18.15;;;;;;;;;;4867404;29;20032;-77
2023/04/07 00:08:13;;;;;;;23.90;17.05;;;;;;;;;;4867291;29;20017;-77
2023/04/07 00:10:39;;;;;;;23.25;17.17;;;;;;;;;;4865882;29;20051;-78
2023/04/07 00:13:05;;;;;;;24.42;17.80;;;;;;;;;;4864666;29;20020;-77
2023/04/07 00:15:31;;;;;;;20.02;15.48;;;;;;;;;;4867302;29;20029;-77
2023/04/07 00:17:56;;;;;;;22.08;16.42;;;;;;;;;;4865085;29;20035;-77
2023/04/07 00:20:21;;;;;;;22.20;16.33;;;;;;;;;;4866992;29;20490;-77
2023/04/07 00:22:47;;;;;;;22.83;16.08;;;;;;;;;;4867485;29;20416;-77
2023/04/07 00:25:12;;;;;;;19.33;16.80;;;;;;;;;;4866015;29;20037;-77
2023/04/07 00:27:37;;;;;;;20.25;15.77;;;;;;;;;;4866911;29;20077;-78
2023/04/07 00:30:03;;;;;;;19.05;15.18;;;;;;;;;;4865322;29;20032;-77
2023/04/07 00:32:28;;;;;;;18.70;14.90;;;;;;;;;;4867333;29;20107;-78
2023/04/07 00:34:54;;;;;;;17.33;14.73;;;;;;;;;;4866650;29;20152;-76
2023/04/07 00:37:19;;;;;;;23.52;16.85;;;;;;;;;;4865144;29;20526;-77
2023/04/07 00:39:45;;;;;;;18.13;14.98;;;;;;;;;;4867054;29;20120;-77
2023/04/07 00:42:11;;;;;;;18.23;15.82;;;;;;;;;;4867085;29;20013;-77
2023/04/07 00:44:36;;;;;;;19.67;16.58;;;;;;;;;;4867603;29;20476;-77
2023/04/07 00:47:02;;;;;;;18.60;15.88;;;;;;;;;;4865922;29;20097;-77
2023/04/07 00:49:27;;;;;;;20.10;15.50;;;;;;;;;;4851550;29;20139;-77
2023/04/07 00:51:56;;;;;;;18.33;14.63;;;;;;;;;;4866371;29;20840;-77
2023/04/07 00:54:25;;;;;;;18.13;14.80;;;;;;;;;;4868656;29;20231;-77
2023/04/07 00:56:51;;;;;;;21.10;16.88;;;;;;;;;;4867791;29;20494;-77
2023/04/07 00:59:17;;;;;;;19.13;15.25;;;;;;;;;;4867389;29;20025;-77
2023/04/07 01:01:45;;;;;;;18.38;15.45;;;;;;;;;;4867286;29;20033;-77
2023/04/07 01:04:19;;;;;;;20.98;15.00;;;;;;;;;;4867359;29;20502;-77
2023/04/07 01:06:50;;;;;;;17.67;14.55;;;;;;;;;;4867124;29;20029;-77
2023/04/07 01:09:21;;;;;;;19.65;13.85;;;;;;;;;;4866346;29;20112;-77
2023/04/07 01:11:56;;;;;;;22.42;15.48;;;;;;;;;;4866020;29;20029;-77
2023/04/07 01:14:23;;;;;;;20.45;16.20;;;;;;;;;;4874515;29;20056;-77
2023/04/07 01:16:49;;;;;;;19.15;14.48;;;;;;;;;;4866593;29;20026;-77
2023/04/07 01:19:17;;;;;;;21.85;15.98;;;;;;;;;;4867027;29;20103;-77
2023/04/07 01:21:43;;;;;;;23.63;17.10;;;;;;;;;;4866048;29;20024;-77
2023/04/07 01:24:14;;;;;;;20.60;14.23;;;;;;;;;;4866274;29;20500;-74
2023/04/07 01:26:41;;;;;;;20.02;15.73;;;;;;;;;;4865818;29;20021;-75
2023/04/07 01:29:24;;;;;;;23.17;15.43;;;;;;;;;;4866649;29;20021;-77
2023/04/07 01:31:49;;;;;;;33.03;19.90;;;;;;;;;;4865757;29;20063;-75
2023/04/07 01:34:15;;;;;;;26.55;17.52;;;;;;;;;;4863852;29;20044;-75
2023/04/07 01:36:42;;;;;;;28.35;18.33;;;;;;;;;;4864628;29;20025;-75
2023/04/07 01:39:08;;;;;;;34.50;20.42;;;;;;;;;;4865485;29;20527;-76
2023/04/07 01:41:34;;;;;;;29.67;18.55;;;;;;;;;;4868875;29;20076;-75
2023/04/07 01:44:00;;;;;;;39.47;21.30;;;;;;;;;;4869119;29;20025;-75
2023/04/07 01:46:26;;;;;;;46.70;24.95;;;;;;;;;;4868792;29;20088;-75
2023/04/07 01:48:51;;;;;;;48.13;26.77;;;;;;;;;;4867978;29;20029;-76
2023/04/07 01:51:18;;;;;;;38.83;23.67;;;;;;;;;;4868888;29;20068;-76
2023/04/07 01:53:47;;;;;;;26.70;16.95;;;;;;;;;;4867016;29;20072;-76
2023/04/07 01:56:12;;;;;;;22.20;16.33;;;;;;;;;;4866316;29;20025;-76
2023/04/07 01:58:38;;;;;;;24.80;18.67;;;;;;;;;;4868009;29;20056;-76
2023/04/07 02:01:03;;;;;;;25.25;18.40;;;;;;;;;;4868357;29;20028;-76
2023/04/07 02:03:34;;;;;;;23.92;17.75;;;;;;;;;;4869323;29;20100;-76
2023/04/07 02:06:06;;;;;;;23.33;17.92;;;;;;;;;;4868820;29;20161;-76
2023/04/07 02:08:32;;;;;;;20.02;15.85;;;;;;;;;;4868119;29;20025;-76
2023/04/07 02:10:58;;;;;;;18.25;14.75;;;;;;;;;;4867509;29;20514;-76
2023/04/07 02:13:24;;;;;;;23.05;17.00;;;;;;;;;;4867093;29;20025;-75
2023/04/07 02:15:49;;;;;;;20.52;15.15;;;;;;;;;;4869031;29;20036;-76
2023/04/07 02:18:15;;;;;;;18.58;14.90;;;;;;;;;;4867324;29;20029;-75
2023/04/07 02:20:42;;;;;;;20.98;15.75;;;;;;;;;;4864124;29;20036;-76
2023/04/07 02:23:08;;;;;;;17.20;14.90;;;;;;;;;;4868263;29;20076;-76
2023/04/07 02:25:33;;;;;;;18.48;16.48;;;;;;;;;;4868955;29;20025;-76
2023/04/07 02:27:59;;;;;;;25.25;17.73;;;;;;;;;;4868493;29;20024;-76
2023/04/07 02:30:25;;;;;;;27.08;17.92;;;;;;;;;;4868165;29;20040;-75
2023/04/07 02:32:51;;;;;;;23.90;17.38;;;;;;;;;;4855339;29;20082;-76
2023/04/07 02:35:16;;;;;;;17.13;14.80;;;;;;;;;;4868165;29;20108;-76
2023/04/07 02:37:42;;;;;;;19.90;14.25;;;;;;;;;;4868851;29;20116;-77
2023/04/07 02:40:08;;;;;;;15.25;13.07;;;;;;;;;;4866576;29;20555;-77
2023/04/07 02:42:33;;;;;;;20.67;13.23;;;;;;;;;;4868764;29;20028;-76
2023/04/07 02:44:58;;;;;;;18.42;14.07;;;;;;;;;;4867807;29;20033;-77
2023/04/07 02:47:24;;;;;;;17.70;14.43;;;;;;;;;;4868431;29;20347;-77
2023/04/07 02:49:49;;;;;;;18.30;12.77;;;;;;;;;;4869921;29;20518;-77
2023/04/07 02:52:15;;;;;;;21.00;15.75;;;;;;;;;;4867653;29;20124;-77
2023/04/07 02:54:40;;;;;;;20.95;14.52;;;;;;;;;;4867971;29;20025;-77
2023/04/07 02:57:05;;;;;;;21.38;13.18;;;;;;;;;;4866273;29;20099;-77
2023/04/07 02:59:31;;;;;;;19.90;12.75;;;;;;;;;;4864932;29;20032;-77
2023/04/07 03:01:56;;;;;;;20.42;13.43;;;;;;;;;;4867557;29;20396;-76
2023/04/07 03:04:21;;;;;;;13.63;11.60;;;;;;;;;;4868404;29;20009;-76
2023/04/07 03:06:47;;;;;;;15.50;11.90;;;;;;;;;;4866662;29;20029;-77
2023/04/07 03:09:12;;;;;;;21.08;11.95;;;;;;;;;;4867781;29;20029;-77
2023/04/07 03:11:38;;;;;;;16.63;12.32;;;;;;;;;;4867134;29;20072;-77
2023/04/07 03:14:03;;;;;;;17.55;13.15;;;;;;;;;;4867633;29;20029;-77
2023/04/07 03:16:28;;;;;;;18.15;12.57;;;;;;;;;;4867425;29;20021;-77
2023/04/07 03:18:54;;;;;;;15.40;11.98;;;;;;;;;;4868264;29;20021;-77
2023/04/07 03:21:20;;;;;;;16.75;12.57;;;;;;;;;;4867727;29;20676;-77
2023/04/07 03:23:46;;;;;;;12.68;10.95;;;;;;;;;;4867079;29;20495;-77
2023/04/07 03:26:11;;;;;;;12.10;10.82;;;;;;;;;;4867107;29;20096;-76
2023/04/07 03:28:36;;;;;;;15.50;11.55;;;;;;;;;;4867017;29;20032;-76
2023/04/07 03:31:02;;;;;;;18.85;13.00;;;;;;;;;;4866713;29;20094;-76
2023/04/07 03:33:27;;;;;;;19.10;12.82;;;;;;;;;;4866691;29;20033;-76
2023/04/07 03:35:53;;;;;;;20.55;14.02;;;;;;;;;;4865376;29;20055;-76
2023/04/07 03:38:18;;;;;;;32.28;21.13;;;;;;;;;;4867028;29;20040;-76
2023/04/07 03:40:43;;;;;;;22.85;15.48;;;;;;;;;;4865189;29;20112;-76
2023/04/07 03:43:12;;;;;;;38.25;27.70;;;;;;;;;;4864105;29;20021;-76
2023/04/07 03:45:38;;;;;;;33.30;24.80;;;;;;;;;;4866110;29;20021;-75
2023/04/07 03:48:03;;;;;;;28.63;21.90;;;;;;;;;;4867197;29;20035;-76
2023/04/07 03:50:29;;;;;;;22.65;14.90;;;;;;;;;;4866220;29;20033;-76
2023/04/07 03:52:54;;;;;;;19.83;14.40;;;;;;;;;;4867306;29;20029;-75
2023/04/07 03:55:20;;;;;;;16.85;12.40;;;;;;;;;;4866806;29;20035;-76
2023/04/07 03:57:45;;;;;;;16.38;12.60;;;;;;;;;;4866294;29;20088;-75
2023/04/07 04:00:11;;;;;;;16.77;12.00;;;;;;;;;;4866645;29;20189;-75
2023/04/07 04:02:36;;;;;;;21.77;14.20;;;;;;;;;;4866223;29;20165;-76
2023/04/07 04:05:02;;;;;;;41.17;23.23;;;;;;;;;;4867033;29;20025;-76
2023/04/07 04:07:27;;;;;;;19.55;16.17;;;;;;;;;;4866021;29;20116;-75
2023/04/07 04:09:53;;;;;;;21.08;15.80;;;;;;;;;;4866633;29;20631;-76
2023/04/07 04:12:19;;;;;;;13.35;11.95;;;;;;;;;;4866671;29;20120;-76
2023/04/07 04:14:44;;;;;;;23.05;14.90;;;;;;;;;;4861267;29;20018;-76
2023/04/07 04:17:09;;;;;;;29.50;19.27;;;;;;;;;;4866616;29;20052;-76
2023/04/07 04:19:35;;;;;;;32.63;19.95;;;;;;;;;;4866320;29;20013;-76
2023/04/07 04:22:00;;;;;;;32.78;20.90;;;;;;;;;;4866495;29;20020;-76
2023/04/07 04:24:25;;;;;;;32.97;19.95;;;;;;;;;;4866419;29;20131;-76
2023/04/07 04:26:51;;;;;;;30.35;18.70;;;;;;;;;;4866453;29;20017;-75
2023/04/07 04:29:16;;;;;;;26.65;18.55;;;;;;;;;;4866511;29;20021;-76
2023/04/07 04:31:41;;;;;;;25.80;15.27;;;;;;;;;;4866049;29;20067;-75
2023/04/07 04:34:06;;;;;;;25.02;16.13;;;;;;;;;;4866540;29;20013;-76
2023/04/07 04:36:32;;;;;;;27.52;17.25;;;;;;;;;;4868009;29;20108;-76
2023/04/07 04:38:57;;;;;;;118.88;58.25;;;;;;;;;;4871546;29;20032;-76
2023/04/07 04:41:22;;;;;;;35.33;22.45;;;;;;;;;;4870324;29;20025;-75
2023/04/07 04:43:48;;;;;;;26.02;15.60;;;;;;;;;;4866541;29;20029;-76
2023/04/07 04:46:13;;;;;;;26.27;17.27;;;;;;;;;;4862765;29;20064;-77
2023/04/07 04:48:38;;;;;;;18.90;12.88;;;;;;;;;;4868139;29;20045;-76
2023/04/07 04:51:04;;;;;;;21.73;14.68;;;;;;;;;;4866829;29;20041;-78
2023/04/07 04:53:29;;;;;;;26.08;18.52;;;;;;;;;;4870222;29;20029;-76
2023/04/07 04:55:54;;;;;;;23.27;17.63;;;;;;;;;;4867265;29;20610;-76
2023/04/07 04:58:20;;;;;;;20.05;16.02;;;;;;;;;;4869278;29;20033;-77
2023/04/07 05:00:45;;;;;;;19.40;16.55;;;;;;;;;;4867415;29;20028;-76
2023/04/07 05:03:10;;;;;;;10.70;9.70;;;;;;;;;;4866454;29;20013;-75
2023/04/07 05:05:36;;;;;;;10.93;10.02;;;;;;;;;;4866768;29;20056;-76
2023/04/07 05:08:01;;;;;;;14.80;10.20;;;;;;;;;;4866620;29;20021;-78
2023/04/07 05:10:26;;;;;;;10.68;9.02;;;;;;;;;;4866582;29;20072;-78
2023/04/07 05:12:51;;;;;;;9.57;7.40;;;;;;;;;;4867339;29;20029;-78
2023/04/07 05:15:17;;;;;;;21.73;12.05;;;;;;;;;;4867913;29;20491;-76
2023/04/07 05:17:42;;;;;;;20.48;11.77;;;;;;;;;;4869978;29;20028;-78
2023/04/07 05:20:08;;;;;;;53.08;24.30;;;;;;;;;;4872912;29;20103;-78
2023/04/07 05:22:34;;;;;;;82.78;37.95;;;;;;;;;;4872670;29;20024;-78
2023/04/07 05:25:00;;;;;;;64.97;30.08;;;;;;;;;;4872125;29;20136;-79
2023/04/07 05:27:26;;;;;;;16.30;11.88;;;;;;;;;;4872252;29;20124;-79
2023/04/07 05:29:51;;;;;;;22.85;17.10;;;;;;;;;;4885882;29;20112;-80
2023/04/07 05:32:17;;;;;;;38.35;27.30;;;;;;;;;;4873557;29;20056;-81
2023/04/07 05:34:43;;;;;;;48.25;32.10;;;;;;;;;;4873254;29;20025;-78
2023/04/07 05:37:08;;;;;;;32.38;24.10;;;;;;;;;;4871625;29;20031;-79
2023/04/07 05:39:33;;;;;;;20.38;15.85;;;;;;;;;;4871110;29;20021;-78
2023/04/07 05:42:00;;;;;;;14.13;12.45;;;;;;;;;;4871811;29;20059;-79
2023/04/07 05:44:25;;;;;;;12.52;10.82;;;;;;;;;;4865616;29;20835;-77
2023/04/07 05:46:51;;;;;;;9.07;8.18;;;;;;;;;;4879883;29;20092;-79
2023/04/07 05:49:16;;;;;;;9.15;7.32;;;;;;;;;;4872205;29;20044;-80
2023/04/07 05:51:41;;;;;;;7.60;6.83;;;;;;;;;;4872062;29;20108;-77
2023/04/07 05:54:06;;;;;;;7.68;6.97;;;;;;;;;;4869381;29;20782;-79
2023/04/07 05:56:32;;;;;;;7.20;6.70;;;;;;;;;;4871459;29;20029;-78
2023/04/07 05:58:58;;;;;;;7.90;7.10;;;;;;;;;;4873608;29;20273;-75
2023/04/07 06:01:23;;;;;;;7.78;7.07;;;;;;;;;;4873813;29;20318;-78
2023/04/07 06:03:49;;;;;;;8.38;7.57;;;;;;;;;;4873209;29;20497;-76
2023/04/07 06:06:14;;;;;;;8.02;7.28;;;;;;;;;;4873609;29;20021;-78
2023/04/07 06:08:40;;;;;;;10.90;7.63;;;;;;;;;;4868126;29;20518;-78
2023/04/07 06:11:05;;;;;;;8.68;7.18;;;;;;;;;;4870720;29;20124;-78
2023/04/07 06:13:30;;;;;;;7.97;7.28;;;;;;;;;;4871499;29;20123;-78
2023/04/07 06:15:56;;;;;;;8.75;7.82;;;;;;;;;;4873085;29;20027;-78
2023/04/07 06:18:21;;;;;;;12.75;9.80;;;;;;;;;;4862894;29;20029;-78
2023/04/07 06:20:47;;;;;;;11.20;8.57;;;;;;;;;;4866583;29;20029;-77
2023/04/07 06:23:12;;;;;;;13.35;10.65;;;;;;;;;;4865234;29;20040;-78
2023/04/07 06:25:37;;;;;;;14.38;11.35;;;;;;;;;;4860068;29;20022;-78
2023/04/07 06:28:03;;;;;;;8.80;8.05;;;;;;;;;;4866436;29;20949;-78
2023/04/07 06:30:28;;;;;;;8.20;7.40;;;;;;;;;;4872232;29;20116;-78
2023/04/07 06:32:53;;;;;;;10.50;9.07;;;;;;;;;;4870684;29;20503;-78
2023/04/07 06:35:19;;;;;;;9.38;8.32;;;;;;;;;;4864601;29;20029;-79
2023/04/07 06:37:44;;;;;;;10.75;9.63;;;;;;;;;;4871815;29;20225;-80
2023/04/07 06:40:09;;;;;;;11.00;9.98;;;;;;;;;;4856357;29;20036;-78
2023/04/07 06:42:35;;;;;;;11.68;9.45;;;;;;;;;;4869879;29;20492;-78
2023/04/07 06:45:00;;;;;;;10.97;9.33;;;;;;;;;;4866331;29;20535;-76
2023/04/07 06:47:25;;;;;;;13.37;9.83;;;;;;;;;;4864196;29;20329;-77
2023/04/07 06:49:50;;;;;;;11.50;8.97;;;;;;;;;;4863436;29;20274;-76
2023/04/07 06:52:16;;;;;;;10.23;9.13;;;;;;;;;;4863141;29;20305;-78
2023/04/07 06:54:41;;;;;;;8.87;8.10;;;;;;;;;;4859139;29;20801;-80
2023/04/07 06:57:10;;;;;;;8.95;8.15;;;;;;;;;;4853452;29;20575;-80
2023/04/07 06:59:36;;;;;;;9.55;8.15;;;;;;;;;;4854167;29;20482;-81
2023/04/07 07:02:01;;;;;;;10.00;8.57;;;;;;;;;;4862226;29;20119;-81
2023/04/07 07:04:27;;;;;;;8.87;8.07;;;;;;;;;;4863393;29;20447;-81
2023/04/07 07:06:52;;;;;;;8.27;7.50;;;;;;;;;;4855402;29;20116;-81
2023/04/07 07:09:17;;;;;;;7.38;6.88;;;;;;;;;;4852075;29;20281;-78
2023/04/07 07:11:43;;;;;;;7.57;6.82;;;;;;;;;;4857665;29;20045;-78
2023/04/07 07:14:08;;;;;;;7.50;6.77;;;;;;;;;;4852264;29;20033;-81
2023/04/07 07:16:33;;;;;;;7.10;6.60;;;;;;;;;;4869378;29;20053;-82
2023/04/07 07:18:58;;;;;;;7.13;6.63;;;;;;;;;;4855945;29;20025;-78
2023/04/07 07:21:24;;;;;;;7.03;6.33;;;;;;;;;;4860337;29;20285;-78
2023/04/07 07:23:50;;;;;;;13.88;6.90;;;;;;;;;;4859612;29;20611;-81
2023/04/07 07:26:15;;;;;;;7.85;7.13;;;;;;;;;;4861611;29;20081;-81
2023/04/07 07:28:40;;;;;;;7.88;7.18;;;;;;;;;;4860020;29;20507;-81
2023/04/07 07:31:11;;;;;;;6.70;6.05;;;;;;;;;;4853870;29;20048;-81
2023/04/07 07:33:39;;;;;;;7.78;7.07;;;;;;;;;;4856573;29;20120;-82
2023/04/07 07:36:04;;;;;;;8.27;7.47;;;;;;;;;;4857891;29;20029;-79
2023/04/07 07:38:30;;;;;;;7.88;7.15;;;;;;;;;;4865464;29;20045;-81
2023/04/07 07:40:55;;;;;;;7.63;6.43;;;;;;;;;;4875996;29;20020;-83
2023/04/07 07:43:22;;;;;;;7.82;7.13;;;;;;;;;;4887777;29;20309;-81
2023/04/07 07:45:47;;;;;;;7.10;6.50;;;;;;;;;;4870154;29;20028;-81
2023/04/07 07:48:12;;;;;;;8.13;7.43;;;;;;;;;;4872500;29;20048;-82
2023/04/07 07:50:37;;;;;;;7.32;6.72;;;;;;;;;;4882006;29;20305;-85
2023/04/07 07:53:03;;;;;;;7.78;6.93;;;;;;;;;;4865954;29;20435;-77
2023/04/07 07:55:28;;;;;;;9.88;7.38;;;;;;;;;;4874880;29;20036;-82
2023/04/07 07:57:53;;;;;;;9.48;7.97;;;;;;;;;;4876963;29;20016;-79
2023/04/07 08:00:19;;;;;;;9.27;7.80;;;;;;;;;;4859140;29;20025;-80
2023/04/07 08:02:44;;;;;;;8.75;8.05;;;;;;;;;;4882314;29;20044;-81
2023/04/07 08:05:10;;;;;;;10.30;7.85;;;;;;;;;;4869819;29;20096;-80
2023/04/07 08:07:35;;;;;;;9.43;8.50;;;;;;;;;;4871964;29;20515;-80
2023/04/07 08:10:00;;;;;;;8.02;7.40;;;;;;;;;;4870849;29;20033;-78
2023/04/07 08:12:26;;;;;;;8.90;7.25;;;;;;;;;;4874103;29;20171;-80
2023/04/07 08:14:51;;;;;;;11.05;8.25;;;;;;;;;;4872512;29;20080;-79
2023/04/07 08:17:17;;;;;;;9.65;8.13;;;;;;;;;;4971143;23;20083;-80
2023/04/07 08:19:42;;;;;;;9.77;8.88;;;;;;;;;;4915161;29;20017;-82
2023/04/07 08:22:07;;;;;;;9.70;8.68;;;;;;;;;;4917118;29;20065;-81
2023/04/07 08:24:33;;;;;;;10.60;8.95;;;;;;;;;;4919886;29;20020;-81
2023/04/07 08:26:58;;;;;;;9.60;8.68;;;;;;;;;;5091368;23;20106;-80
2023/04/07 08:31:59;;;;;;;17.05;8.90;;;;;;;;;;5322675;23;20055;-81
2023/04/07 08:34:24;;;;;;;9.95;9.00;;;;;;;;;;4902904;29;20073;-79
2023/04/07 08:36:50;;;;;;;10.32;8.88;;;;;;;;;;4911346;29;20028;-80
2023/04/07 08:39:15;;;;;;;10.48;8.93;;;;;;;;;;4906024;29;20013;-81
2023/04/07 08:41:41;;;;;;;8.60;7.53;;;;;;;;;;4889299;29;20025;-81
2023/04/07 08:44:08;;;;;;;10.60;8.18;;;;;;;;;;4900978;29;20277;-83
2023/04/07 08:46:33;;;;;;;11.13;9.20;;;;;;;;;;5147060;23;20052;-81
2023/04/07 08:49:00;;;;;;;12.88;8.75;;;;;;;;;;4907478;29;20021;-82
2023/04/07 08:51:30;;;;;;;10.88;8.30;;;;;;;;;;5862297;23;20039;-84
2023/04/07 08:54:13;;;;;;;10.52;7.57;;;;;;;;;;4920718;29;20045;-81
2023/04/07 08:59:14;;;;;;;12.60;9.00;;;;;;;;;;5498751;23;19911;-82
2023/04/07 09:01:40;;;;;;;9.13;8.27;;;;;;;;;;4921440;29;20025;-80
2023/04/07 09:04:06;;;;;;;9.48;8.43;;;;;;;;;;4916095;29;20062;-79
2023/04/07 09:06:32;;;;;;;10.10;8.43;;;;;;;;;;4892926;29;20055;-79
2023/04/07 09:08:58;;;;;;;9.90;9.00;;;;;;;;;;4888091;29;20068;-80
2023/04/07 09:11:25;;;;;;;10.52;8.45;;;;;;;;;;4888071;29;20123;-79
2023/04/07 09:13:50;;;;;;;10.77;9.18;;;;;;;;;;4889374;29;20017;-78
2023/04/07 09:16:15;;;;;;;11.88;8.70;;;;;;;;;;4892550;29;20505;-79
2023/04/07 09:18:41;;;;;;;9.40;7.47;;;;;;;;;;4900914;29;20036;-80
2023/04/07 09:21:07;;;;;;;10.02;8.35;;;;;;;;;;4904540;29;20029;-79
2023/04/07 09:23:39;;;;;;;10.57;8.02;;;;;;;;;;4913510;29;20483;-80
2023/04/07 09:26:16;;;;;;;8.82;7.97;;;;;;;;;;4905231;29;20057;-80
2023/04/07 09:31:45;;;;;;;12.00;8.90;;;;;;;;;;4901019;29;20086;-80
2023/04/07 09:34:25;;;;;;;8.98;8.18;;;;;;;;;;4892496;29;20021;-79
2023/04/07 09:36:50;;;;;;;10.50;7.38;;;;;;;;;;4880382;29;20041;-78
2023/04/07 09:39:16;;;;;;;8.90;8.00;;;;;;;;;;4869182;29;20037;-79
2023/04/07 09:41:41;;;;;;;9.32;8.40;;;;;;;;;;4880718;29;20032;-81
2023/04/07 09:44:06;;;;;;;7.35;6.53;;;;;;;;;;4884742;29;20030;-80
2023/04/07 09:46:32;;;;;;;11.85;7.20;;;;;;;;;;4886231;29;20037;-80
2023/04/07 09:49:06;;;;;;;9.05;7.15;;;;;;;;;;4882803;29;20014;-77
2023/04/07 09:51:32;;;;;;;7.85;7.15;;;;;;;;;;4864851;29;20051;-77
2023/04/07 09:53:58;;;;;;;7.80;6.82;;;;;;;;;;4866238;29;20029;-77
2023/04/07 09:56:23;;;;;;;7.68;7.03;;;;;;;;;;4859889;29;20210;-79
2023/04/07 09:58:50;;;;;;;7.35;6.65;;;;;;;;;;4862139;29;20059;-77
2023/04/07 10:01:16;;;;;;;8.00;7.20;;;;;;;;;;4859604;29;20033;-78
2023/04/07 10:03:43;;;;;;;6.90;6.30;;;;;;;;;;4864584;29;20040;-78
2023/04/07 10:06:09;;;;;;;7.45;6.40;;;;;;;;;;4855910;29;20872;-78
2023/04/07 10:08:35;;;;;;;6.97;6.22;;;;;;;;;;4861068;29;20088;-79
2023/04/07 10:11:02;;;;;;;7.50;6.07;;;;;;;;;;4856659;29;20056;-77
2023/04/07 10:13:28;;;;;;;7.10;6.50;;;;;;;;;;4863445;29;20025;-79
2023/04/07 10:15:54;;;;;;;7.53;6.70;;;;;;;;;;4869337;29;20077;-80
2023/04/07 10:18:21;;;;;;;8.45;6.70;;;;;;;;;;4876653;29;20192;-79
2023/04/07 10:20:48;;;;;;;7.13;6.40;;;;;;;;;;4870209;29;20033;-78
2023/04/07 10:23:32;;;;;;;8.30;6.05;;;;;;;;;;4889454;29;20024;-79
2023/04/07 10:36:12;;;;;;;7.72;6.80;;;;;;;;;;4923312;29;20149;-82
2023/04/07 10:43:43;;;;;;;7.80;6.85;;;;;;;;;;5004424;23;20057;-79
2023/04/07 10:46:09;;;;;;;6.93;6.13;;;;;;;;;;4914015;29;20060;-80
2023/04/07 10:48:35;;;;;;;7.35;6.72;;;;;;;;;;4911253;29;20084;-84
2023/04/07 10:51:03;;;;;;;8.88;7.88;;;;;;;;;;4914722;29;20041;-82
2023/04/07 10:53:28;;;;;;;8.50;7.05;;;;;;;;;;4917549;29;20025;-84
2023/04/07 10:55:55;;;;;;;7.72;6.93;;;;;;;;;;4916602;29;20021;-82
2023/04/07 10:58:21;;;;;;;8.40;7.63;;;;;;;;;;4914915;29;20468;-84
2023/04/07 11:00:56;;;;;;;7.80;7.18;;;;;;;;;;4902336;29;20044;-82
2023/04/07 11:03:22;;;;;;;7.35;6.65;;;;;;;;;;4915938;29;20031;-82
2023/04/07 11:18:39;;;;;;;7.50;6.78;;;;;;;;;;5148697;23;20040;-78
2023/04/07 11:21:05;;;;;;;8.20;7.40;;;;;;;;;;4919875;29;20044;-82
2023/04/07 11:26:07;;;;;;;7.25;6.65;;;;;;;;;;5858098;23;20090;-82
2023/04/07 11:42:07;;;;;;;7.32;6.72;;;;;;;;;;5223201;23;20038;-82
2023/04/07 11:49:45;;;;;;;7.18;6.57;;;;;;;;;;5692151;23;20111;-82
2023/04/07 11:52:11;;;;;;;6.90;6.30;;;;;;;;;;4930915;29;20019;-82
2023/04/07 11:54:46;;;;;;;6.70;6.10;;;;;;;;;;5200134;23;20116;-83
2023/04/07 11:57:12;;;;;;;7.63;7.03;;;;;;;;;;4918084;29;20024;-82
2023/04/07 12:07:20;;;;;;;7.30;6.63;;;;;;;;;;5437887;23;20303;-77
2023/04/07 12:14:55;;;;;;;6.50;5.90;;;;;;;;;;4920198;29;20052;-82
2023/04/07 12:22:34;;;;;;;6.60;6.00;;;;;;;;;;5820845;23;20112;-80
2023/04/07 12:25:00;;;;;;;10.70;6.95;;;;;;;;;;4915012;29;20035;-80
2023/04/07 12:27:25;;;;;;;8.10;7.43;;;;;;;;;;4911559;29;20013;-80
2023/04/07 12:29:50;;;;;;;7.22;6.63;;;;;;;;;;4928315;23;20056;-82
2023/04/07 12:32:16;;;;;;;7.68;7.07;;;;;;;;;;5062596;23;20043;-80
2023/04/07 12:39:51;;;;;;;6.85;6.35;;;;;;;;;;5189967;23;19908;-81
2023/04/07 12:44:51;;;;;;;6.85;6.15;;;;;;;;;;5722518;23;20128;-83
2023/04/07 12:47:17;;;;;;;7.32;6.63;;;;;;;;;;4921785;29;20029;-84
2023/04/07 12:49:42;;;;;;;8.07;7.28;;;;;;;;;;4919830;29;20028;-82
2023/04/07 12:52:10;;;;;;;9.25;6.15;;;;;;;;;;4918107;29;20044;-82
2023/04/07 12:54:37;;;;;;;10.52;7.00;;;;;;;;;;4917510;29;20028;-80
2023/04/07 12:57:02;;;;;;;8.40;6.45;;;;;;;;;;4917472;29;20025;-81
2023/04/07 12:59:28;;;;;;;7.85;7.07;;;;;;;;;;4912125;29;20041;-82
2023/04/07 13:01:53;;;;;;;7.28;6.50;;;;;;;;;;4915849;29;20474;-82
2023/04/07 13:04:19;;;;;;;7.32;6.72;;;;;;;;;;4915524;29;20053;-85
2023/04/07 13:06:44;;;;;;;7.85;7.07;;;;;;;;;;4918159;29;20040;-83
2023/04/07 13:09:09;;;;;;;12.02;6.95;;;;;;;;;;4902936;29;20418;-81
2023/04/07 13:11:35;;;;;;;7.85;7.05;;;;;;;;;;4910864;29;20044;-81
2023/04/07 13:14:03;;;;;;;8.20;6.88;;;;;;;;;;4896561;29;20017;-82
2023/04/07 13:16:29;;;;;;;7.55;6.90;;;;;;;;;;4901700;29;20044;-81
2023/04/07 13:18:54;;;;;;;7.43;6.72;;;;;;;;;;4906068;29;20076;-81
2023/04/07 13:21:22;;;;;;;9.75;7.10;;;;;;;;;;4909050;29;20025;-81
2023/04/07 13:23:50;;;;;;;7.45;6.75;;;;;;;;;;4902967;29;20025;-81
2023/04/07 13:26:15;;;;;;;7.90;7.20;;;;;;;;;;4903649;29;20052;-81
2023/04/07 13:28:44;;;;;;;7.47;6.82;;;;;;;;;;4883871;29;20126;-82
2023/04/07 13:31:11;;;;;;;8.17;7.47;;;;;;;;;;4873451;29;20052;-81
2023/04/07 13:33:37;;;;;;;7.97;7.28;;;;;;;;;;4883118;29;20021;-81
2023/04/07 13:36:02;;;;;;;8.02;7.22;;;;;;;;;;4888940;29;20021;-80
2023/04/07 13:38:28;;;;;;;7.55;6.80;;;;;;;;;;4893621;29;20386;-82
2023/04/07 13:40:53;;;;;;;9.10;8.20;;;;;;;;;;4891560;29;20420;-81
2023/04/07 13:43:19;;;;;;;12.13;7.68;;;;;;;;;;4889858;29;20048;-80
2023/04/07 13:45:45;;;;;;;8.07;7.47;;;;;;;;;;4894141;29;20144;-82
2023/04/07 13:48:10;;;;;;;7.55;6.90;;;;;;;;;;4891034;29;20543;-81
2023/04/07 13:50:36;;;;;;;8.23;7.53;;;;;;;;;;4890685;29;20028;-81
2023/04/07 13:53:01;;;;;;;8.73;7.65;;;;;;;;;;4888393;29;20514;-83
2023/04/07 13:55:26;;;;;;;9.95;7.82;;;;;;;;;;4888436;29;20039;-80
2023/04/07 13:57:52;;;;;;;8.60;7.70;;;;;;;;;;4888644;29;20116;-82
2023/04/07 14:00:18;;;;;;;8.30;7.38;;;;;;;;;;4893652;29;20040;-82
2023/04/07 14:02:44;;;;;;;8.70;7.60;;;;;;;;;;4889771;29;20131;-82
2023/04/07 14:05:10;;;;;;;8.02;7.07;;;;;;;;;;4886886;29;20037;-82
2023/04/07 14:07:37;;;;;;;9.60;7.55;;;;;;;;;;4886436;29;20031;-81
2023/04/07 14:10:03;;;;;;;8.57;7.68;;;;;;;;;;4878539;29;20516;-81
2023/04/07 14:12:28;;;;;;;8.98;8.00;;;;;;;;;;4875037;29;20037;-81
2023/04/07 14:14:55;;;;;;;8.38;7.57;;;;;;;;;;4885896;29;20029;-80
2023/04/07 14:17:20;;;;;;;8.32;7.50;;;;;;;;;;4877862;29;20021;-80
2023/04/07 14:19:46;;;;;;;8.70;7.78;;;;;;;;;;4875570;29;20037;-80
2023/04/07 14:22:13;;;;;;;8.00;6.85;;;;;;;;;;4878380;29;20025;-81
2023/04/07 14:24:38;;;;;;;11.30;7.82;;;;;;;;;;4874153;29;20127;-81
2023/04/07 14:27:04;;;;;;;9.52;7.15;;;;;;;;;;4876216;29;20054;-81
2023/04/07 14:29:29;;;;;;;7.60;6.93;;;;;;;;;;4877405;29;20503;-81
2023/04/07 14:31:55;;;;;;;11.20;7.75;;;;;;;;;;4879160;29;20093;-81
2023/04/07 14:34:20;;;;;;;7.90;7.20;;;;;;;;;;4878147;29;20243;-81
2023/04/07 14:36:52;;;;;;;8.02;7.22;;;;;;;;;;4882675;29;20028;-80
2023/04/07 14:39:18;;;;;;;8.35;7.50;;;;;;;;;;4882081;29;20044;-80
2023/04/07 14:41:46;;;;;;;7.55;6.75;;;;;;;;;;4880386;29;20123;-80
2023/04/07 14:44:11;;;;;;;7.85;7.05;;;;;;;;;;4865002;29;20037;-81
2023/04/07 14:46:37;;;;;;;7.97;7.18;;;;;;;;;;4818526;29;1467378;-81
2023/04/07 14:49:02;;;;;;;7.38;6.57;;;;;;;;;;4875017;29;20570;-80
2023/04/07 14:51:27;;;;;;;8.85;7.47;;;;;;;;;;4878465;29;20033;-80
2023/04/07 14:53:54;;;;;;;7.90;7.15;;;;;;;;;;4871422;29;20116;-80
2023/04/07 14:56:20;;;;;;;7.80;7.10;;;;;;;;;;4878261;29;20120;-79
2023/04/07 14:58:45;;;;;;;8.35;7.50;;;;;;;;;;4885062;29;20048;-79
2023/04/07 15:01:11;;;;;;;9.45;6.97;;;;;;;;;;4878394;29;20033;-80
2023/04/07 15:03:36;;;;;;;8.48;7.78;;;;;;;;;;4882457;29;20029;-80
2023/04/07 15:06:06;;;;;;;8.52;7.72;;;;;;;;;;4872840;29;20028;-80
2023/04/07 15:08:32;;;;;;;7.88;7.20;;;;;;;;;;4876933;29;20021;-80
2023/04/07 15:10:57;;;;;;;7.63;6.97;;;;;;;;;;4872730;29;20038;-82
2023/04/07 15:13:22;;;;;;;8.18;7.53;;;;;;;;;;4868467;29;20906;-80
2023/04/07 15:15:48;;;;;;;7.68;6.88;;;;;;;;;;4877916;29;20043;-80
2023/04/07 15:18:13;;;;;;;13.45;8.80;;;;;;;;;;4876661;29;20104;-80
2023/04/07 15:20:38;;;;;;;8.73;8.00;;;;;;;;;;4870929;29;20041;-80
2023/04/07 15:23:04;;;;;;;10.32;8.30;;;;;;;;;;4878100;29;20071;-80
2023/04/07 15:25:29;;;;;;;9.45;8.27;;;;;;;;;;4875945;29;20021;-81
2023/04/07 15:27:54;;;;;;;8.55;7.75;;;;;;;;;;4868438;29;20100;-80
2023/04/07 15:30:20;;;;;;;9.80;8.80;;;;;;;;;;4878680;29;20581;-80
2023/04/07 15:32:59;;;;;;;11.52;8.38;;;;;;;;;;4872411;29;20033;-80
2023/04/07 15:35:24;;;;;;;8.30;7.43;;;;;;;;;;4875091;29;20116;-80
2023/04/07 15:37:50;;;;;;;9.05;8.25;;;;;;;;;;4876561;29;20089;-80
2023/04/07 15:40:15;;;;;;;8.65;7.80;;;;;;;;;;4880701;29;20029;-78
2023/04/07 15:42:40;;;;;;;8.50;7.70;;;;;;;;;;4874909;29;20058;-79
2023/04/07 15:45:06;;;;;;;8.95;7.93;;;;;;;;;;4873760;29;20045;-80
2023/04/07 15:47:31;;;;;;;11.07;8.88;;;;;;;;;;4876259;29;20021;-80